Time;durP1;ratioP1;P1;durP2;ratioP2;P2;SDS_P1;SDS_P2;PMS_P1;PMS_P2;Temp;Humidity;BMP_temperature;BMP_pressure;BME280_temperature;BME280_humidity;BME280_pressure;Samples;Min_cycle;Max_cycle;Signal;HPM_P1;HPM_P2
2021/04/29 00:00:29;;;;;;;18.40;11.75;;;;;;;10.03;82.95;94378.78;2991129;39;20055;-84
2021/04/29 00:02:31;;;;;;;18.38;12.95;;;;;;;10.13;82.91;94375.16;2990865;39;20056;-86
2021/04/29 00:04:32;;;;;;;18.20;11.60;;;;;;;10.11;82.61;94375.34;2987010;39;20055;-86
2021/04/29 00:06:33;;;;;;;16.77;11.75;;;;;;;10.04;83.41;94376.97;2998448;39;20083;-84
2021/04/29 00:08:36;;;;;;;17.63;11.20;;;;;;;10.14;83.03;94367.16;2991937;39;20031;-85
2021/04/29 00:10:37;;;;;;;16.35;11.52;;;;;;;10.05;83.30;94374.19;2998406;39;20448;-87
2021/04/29 00:12:38;;;;;;;17.42;12.00;;;;;;;10.15;83.71;94371.41;2992128;39;20049;-86
2021/04/29 00:14:44;;;;;;;19.23;12.02;;;;;;;10.30;82.90;94368.16;2986683;39;20039;-85
2021/04/29 00:16:48;;;;;;;15.73;11.55;;;;;;;10.54;82.69;94368.13;2996570;39;20057;-84
2021/04/29 00:18:50;;;;;;;19.38;12.05;;;;;;;10.77;81.58;94362.97;2989120;39;20035;-84
2021/04/29 00:20:55;;;;;;;15.73;10.75;;;;;;;11.04;80.59;94368.81;3001150;39;20055;-84
2021/04/29 00:22:56;;;;;;;16.13;11.38;;;;;;;11.26;79.72;94368.03;2986487;39;20038;-83
2021/04/29 00:24:58;;;;;;;18.30;11.70;;;;;;;11.43;78.94;94367.97;2986995;39;20160;-86
2021/04/29 00:26:59;;;;;;;14.50;11.43;;;;;;;11.52;78.36;94368.75;2986331;39;20028;-86
2021/04/29 00:29:00;;;;;;;16.52;11.20;;;;;;;11.57;77.83;94366.41;2997201;39;20054;-84
2021/04/29 00:31:01;;;;;;;14.88;11.07;;;;;;;11.60;77.69;94366.88;2991839;39;20039;-84
2021/04/29 00:33:03;;;;;;;14.50;10.85;;;;;;;11.66;77.69;94371.44;2995556;39;20062;-86
2021/04/29 00:35:05;;;;;;;13.15;10.57;;;;;;;11.75;77.35;94372.19;2995938;39;20059;-87
2021/04/29 00:37:06;;;;;;;15.27;10.80;;;;;;;11.85;77.03;94367.53;2996213;39;20416;-85
2021/04/29 00:39:07;;;;;;;14.45;10.98;;;;;;;11.93;76.81;94369.31;2988637;39;20344;-86
2021/04/29 00:41:09;;;;;;;14.07;11.23;;;;;;;12.01;76.44;94368.44;2993736;39;20053;-85
2021/04/29 00:43:11;;;;;;;15.65;11.23;;;;;;;12.09;76.10;94365.75;2999066;39;20043;-85
2021/04/29 00:45:13;;;;;;;14.75;11.63;;;;;;;12.13;75.77;94368.84;2990202;39;20052;-84
2021/04/29 00:47:15;;;;;;;15.02;11.40;;;;;;;12.07;75.70;94363.31;2999779;39;20067;-82
2021/04/29 00:49:17;;;;;;;15.13;11.40;;;;;;;12.06;76.00;94368.72;2986366;39;20087;-84
2021/04/29 00:51:20;;;;;;;18.13;11.55;;;;;;;12.04;76.12;94361.00;2996283;39;20051;-85
2021/04/29 00:53:33;;;;;;;17.58;12.18;;;;;;;12.00;75.79;94364.16;2995043;39;20035;-85
2021/04/29 00:55:34;;;;;;;17.05;10.75;;;;;;;11.88;75.99;94369.03;2980661;39;20039;-85
2021/04/29 00:57:35;;;;;;;15.48;9.98;;;;;;;11.73;76.93;94373.38;2987398;39;20088;-85
2021/04/29 00:59:36;;;;;;;14.00;9.93;;;;;;;11.70;77.12;94377.13;2999529;39;20061;-84
2021/04/29 01:01:38;;;;;;;14.43;10.18;;;;;;;11.72;76.72;94376.97;2979218;39;20069;-73
2021/04/29 01:04:01;;;;;;;15.02;10.20;;;;;;;11.67;77.09;94370.44;2991450;39;20059;-73
2021/04/29 01:06:13;;;;;;;12.98;10.18;;;;;;;11.56;77.56;94375.28;2987355;39;20057;-73
2021/04/29 01:08:20;;;;;;;13.55;10.30;;;;;;;11.55;77.38;94373.63;2984041;39;20055;-72
2021/04/29 01:10:25;;;;;;;13.65;11.02;;;;;;;11.58;77.55;94375.91;2983264;39;20051;-73
2021/04/29 01:12:49;;;;;;;15.82;10.88;;;;;;;11.44;78.12;94375.66;2983318;39;20051;-73
2021/04/29 01:14:52;;;;;;;14.52;10.63;;;;;;;11.35;78.14;94376.69;2979538;39;20129;-71
2021/04/29 01:16:55;;;;;;;14.57;10.80;;;;;;;11.25;78.51;94384.78;2981514;39;20103;-72
2021/04/29 01:18:58;;;;;;;14.15;10.15;;;;;;;11.09;79.58;94384.03;2983326;39;20431;-72
2021/04/29 01:21:00;;;;;;;13.68;10.63;;;;;;;11.05;79.71;94386.16;2982034;39;20047;-72
2021/04/29 01:23:11;;;;;;;14.48;11.13;;;;;;;11.15;79.78;94384.16;2983715;39;20055;-73
2021/04/29 01:25:15;;;;;;;17.42;10.75;;;;;;;11.10;79.86;94389.09;2982943;39;20349;-73
2021/04/29 01:27:17;;;;;;;13.10;9.77;;;;;;;11.24;79.50;94388.38;2983688;39;20517;-72
2021/04/29 01:29:24;;;;;;;13.55;10.18;;;;;;;11.43;78.95;94391.56;2982229;39;20079;-72
2021/04/29 01:31:48;;;;;;;13.82;10.30;;;;;;;11.59;78.05;94391.47;2981740;39;20100;-71
2021/04/29 01:33:53;;;;;;;13.80;10.05;;;;;;;11.65;77.35;94392.59;2980112;39;20408;-71
2021/04/29 01:35:54;;;;;;;12.95;8.80;;;;;;;11.74;77.24;94390.75;2975496;40;20052;-73
2021/04/29 01:37:56;;;;;;;12.25;9.35;;;;;;;11.74;77.28;94391.53;2983195;39;20520;-72
2021/04/29 01:39:58;;;;;;;12.52;9.18;;;;;;;11.59;77.31;94393.28;2982597;39;20084;-71
2021/04/29 01:42:00;;;;;;;13.45;9.70;;;;;;;11.45;78.03;94394.84;2980578;39;20419;-72
2021/04/29 01:44:02;;;;;;;11.98;9.82;;;;;;;11.36;77.74;94394.06;2983260;39;20128;-71
2021/04/29 01:46:04;;;;;;;14.07;9.63;;;;;;;11.36;78.07;94396.69;2992305;39;20047;-72
2021/04/29 01:48:06;;;;;;;13.23;9.95;;;;;;;11.45;78.18;94400.09;2974832;39;20107;-72
2021/04/29 01:50:12;;;;;;;13.98;9.40;;;;;;;11.54;77.90;94403.50;2981398;39;20454;-74
2021/04/29 01:52:14;;;;;;;12.40;10.30;;;;;;;11.64;77.46;94394.41;2983396;39;20337;-73
2021/04/29 01:54:16;;;;;;;14.30;9.60;;;;;;;11.74;77.05;94394.16;2978735;39;20055;-72
2021/04/29 01:56:18;;;;;;;12.13;9.13;;;;;;;11.85;76.83;94390.34;2980132;39;20053;-71
2021/04/29 01:58:21;;;;;;;13.63;10.02;;;;;;;11.94;76.58;94393.75;2983194;39;20084;-72
2021/04/29 02:00:23;;;;;;;15.15;9.55;;;;;;;12.02;76.42;94391.91;2987446;39;20047;-85
2021/04/29 02:02:25;;;;;;;13.77;10.35;;;;;;;12.09;76.29;94395.47;2995531;39;20048;-84
2021/04/29 02:04:26;;;;;;;17.23;10.55;;;;;;;12.17;75.52;94394.56;2996578;39;20066;-85
2021/04/29 02:06:27;;;;;;;14.40;10.80;;;;;;;12.20;75.47;94383.72;2993874;39;20050;-85
2021/04/29 02:08:29;;;;;;;14.70;10.43;;;;;;;12.22;75.24;94394.06;2989181;39;20329;-86
2021/04/29 02:10:30;;;;;;;14.70;11.52;;;;;;;12.27;75.27;94389.09;2997507;39;20157;-84
2021/04/29 02:12:34;;;;;;;14.25;11.27;;;;;;;12.29;75.41;94393.16;2996674;39;20059;-85
2021/04/29 02:14:40;;;;;;;;;;;;;;;12.31;75.39;94390.38;2986834;39;20075;-84
2021/04/29 02:16:44;;;;;;;16.17;11.40;;;;;;;12.34;75.46;94390.00;2990048;39;19960;-85
2021/04/29 02:18:48;;;;;;;16.25;12.25;;;;;;;12.36;75.63;94384.56;2998895;39;20043;-85
2021/04/29 02:20:50;;;;;;;;;;;;;;;12.42;75.42;94389.13;2979108;40;20040;-85
2021/04/29 02:22:52;;;;;;;18.50;12.82;;;;;;;12.43;75.30;94394.22;2986792;39;19943;-86
2021/04/29 02:24:56;;;;;;;19.50;13.45;;;;;;;12.45;75.41;94386.97;2986188;39;20083;-85
2021/04/29 02:26:58;;;;;;;17.83;13.50;;;;;;;12.48;75.32;94388.41;2999881;39;20047;-86
2021/04/29 02:29:04;;;;;;;16.75;12.98;;;;;;;12.49;75.25;94392.66;2974538;39;20491;-71
2021/04/29 02:31:06;;;;;;;16.58;12.52;;;;;;;12.53;75.03;94399.19;2983540;39;20043;-72
2021/04/29 02:33:08;;;;;;;18.77;12.85;;;;;;;12.52;75.01;94394.94;2976323;39;20083;-71
2021/04/29 02:35:15;;;;;;;16.15;12.05;;;;;;;12.52;74.79;94402.00;2983027;39;20071;-72
2021/04/29 02:37:16;;;;;;;18.73;12.73;;;;;;;12.52;74.96;94405.47;2992172;39;20096;-73
2021/04/29 02:39:18;;;;;;;16.05;12.10;;;;;;;12.52;74.76;94407.25;2981702;39;20410;-72
2021/04/29 02:41:19;;;;;;;16.42;12.20;;;;;;;12.53;74.99;94407.06;2988519;39;20420;-72
2021/04/29 02:43:23;;;;;;;14.75;11.90;;;;;;;12.59;74.57;94409.00;2992691;39;20047;-73
2021/04/29 02:45:24;;;;;;;14.52;12.02;;;;;;;12.58;74.58;94396.03;2983975;39;20076;-73
2021/04/29 02:47:26;;;;;;;16.40;11.85;;;;;;;12.59;74.60;94403.75;2984690;39;20069;-72
2021/04/29 02:49:27;;;;;;;17.63;11.73;;;;;;;12.61;74.59;94400.94;2983746;39;20052;-73
2021/04/29 02:51:29;;;;;;;17.45;11.40;;;;;;;12.64;74.43;94405.81;2975622;39;20386;-73
2021/04/29 02:53:31;;;;;;;16.02;11.25;;;;;;;12.64;74.29;94398.75;2986397;39;20052;-71
2021/04/29 02:55:32;;;;;;;19.83;13.32;;;;;;;12.68;74.14;94405.28;2982920;39;20101;-73
2021/04/29 02:57:33;;;;;;;18.42;12.82;;;;;;;12.70;74.19;94410.38;2977445;39;20517;-73
2021/04/29 02:59:41;;;;;;;21.80;13.85;;;;;;;12.65;74.37;94415.34;2984896;39;20060;-85
2021/04/29 03:01:42;;;;;;;23.05;15.25;;;;;;;12.66;74.70;94415.16;2987520;39;20063;-86
2021/04/29 03:03:44;;;;;;;24.30;14.95;;;;;;;12.61;74.53;94408.81;2996566;39;20043;-85
2021/04/29 03:05:46;;;;;;;22.00;16.02;;;;;;;12.58;74.76;94407.34;2987531;39;20063;-84
2021/04/29 03:07:47;;;;;;;21.40;16.88;;;;;;;12.60;74.48;94413.25;2987677;39;20096;-84
2021/04/29 03:09:48;;;;;;;22.58;16.05;;;;;;;12.62;74.35;94413.88;2998449;39;20112;-86
2021/04/29 03:11:50;;;;;;;17.77;12.85;;;;;;;12.53;74.19;94416.78;2993280;39;20094;-84
2021/04/29 03:13:51;;;;;;;19.85;12.57;;;;;;;12.41;74.70;94421.63;2994969;39;20107;-86
2021/04/29 03:15:52;;;;;;;18.17;12.60;;;;;;;12.14;75.83;94420.38;3002085;39;20032;-85
2021/04/29 03:17:54;;;;;;;17.55;12.25;;;;;;;12.11;75.67;94421.56;3008602;39;20464;-85
2021/04/29 03:20:12;;;;;;;13.15;11.10;;;;;;;12.04;75.87;94421.41;2996968;39;20135;-85
2021/04/29 03:22:14;;;;;;;19.08;12.27;;;;;;;11.92;76.00;94424.63;2979484;39;20421;-86
2021/04/29 03:24:15;;;;;;;16.38;11.70;;;;;;;11.86;76.56;94426.91;2993641;39;20113;-86
2021/04/29 03:26:17;;;;;;;17.60;11.60;;;;;;;11.85;76.19;94437.56;2995883;39;20478;-88
2021/04/29 03:28:18;;;;;;;16.60;12.20;;;;;;;11.92;76.06;94425.44;2994951;39;20047;-84
2021/04/29 03:30:20;;;;;;;19.25;12.30;;;;;;;12.00;75.17;94429.81;2981966;40;20036;-84
2021/04/29 03:32:21;;;;;;;14.80;11.05;;;;;;;11.96;75.29;94439.00;3002304;39;20055;-86
2021/04/29 03:34:23;;;;;;;19.77;12.70;;;;;;;11.90;75.79;94431.88;2989538;39;20440;-85
2021/04/29 03:36:24;;;;;;;17.88;12.02;;;;;;;11.72;75.83;94439.94;2997868;39;20067;-86
2021/04/29 03:38:25;;;;;;;26.05;14.05;;;;;;;11.60;76.17;94442.97;2997848;39;20050;-86
2021/04/29 03:40:26;;;;;;;15.15;11.48;;;;;;;11.47;76.88;94451.38;2989034;39;20042;-83
2021/04/29 03:42:28;;;;;;;20.83;12.50;;;;;;;11.44;77.13;94448.28;2998723;39;20075;-85
2021/04/29 03:44:29;;;;;;;21.30;12.73;;;;;;;11.42;77.10;94453.72;2980128;39;20055;-83
2021/04/29 03:46:31;;;;;;;21.05;13.52;;;;;;;11.41;77.09;94453.88;2985944;39;20052;-85
2021/04/29 03:48:32;;;;;;;21.20;12.90;;;;;;;11.34;77.50;94458.97;2997112;39;20031;-87
2021/04/29 03:50:34;;;;;;;24.33;13.25;;;;;;;11.37;77.48;94456.00;2987857;39;20060;-85
2021/04/29 03:52:35;;;;;;;16.83;12.85;;;;;;;11.17;77.64;94460.03;2981047;40;20369;-87
2021/04/29 03:54:37;;;;;;;25.67;13.88;;;;;;;11.11;78.41;94460.69;2990249;39;20064;-84
2021/04/29 03:56:38;;;;;;;17.58;12.80;;;;;;;11.27;77.58;94465.88;2976655;39;20040;-88
2021/04/29 03:58:39;;;;;;;21.30;13.60;;;;;;;11.42;77.09;94464.19;2981054;40;20385;-84
2021/04/29 04:00:40;;;;;;;22.83;12.45;;;;;;;11.53;76.09;94455.13;2982162;39;20103;-84
2021/04/29 04:02:42;;;;;;;24.15;14.00;;;;;;;11.64;76.17;94456.56;3002673;39;20055;-87
2021/04/29 04:04:44;;;;;;;18.17;12.80;;;;;;;11.76;75.71;94460.41;2990014;39;20108;-86
2021/04/29 04:06:45;;;;;;;21.73;14.32;;;;;;;11.83;75.16;94461.38;2999653;39;20031;-85
2021/04/29 04:08:46;;;;;;;17.55;13.13;;;;;;;11.93;75.07;94463.00;2990333;39;20032;-88
2021/04/29 04:10:47;;;;;;;18.75;12.93;;;;;;;11.97;75.04;94467.72;2981781;40;20056;-87
2021/04/29 04:12:49;;;;;;;17.65;14.07;;;;;;;12.06;74.79;94471.94;2990250;39;20059;-86
2021/04/29 04:14:50;;;;;;;19.23;13.48;;;;;;;12.17;74.47;94473.34;2988591;39;20075;-85
2021/04/29 04:16:51;;;;;;;19.30;12.88;;;;;;;12.23;74.28;94477.09;2988433;39;20043;-86
2021/04/29 04:18:53;;;;;;;20.33;13.55;;;;;;;12.27;74.04;94475.75;2997450;39;20320;-86
2021/04/29 04:20:54;;;;;;;21.95;14.57;;;;;;;12.32;73.65;94481.28;2997569;39;20397;-87
2021/04/29 04:22:55;;;;;;;22.23;14.38;;;;;;;12.17;74.13;94478.59;3005067;39;20034;-86
2021/04/29 04:24:56;;;;;;;21.40;14.50;;;;;;;12.06;74.60;94481.63;2985510;39;20052;-86
2021/04/29 04:26:58;;;;;;;28.38;14.10;;;;;;;11.99;74.77;94476.25;2998086;39;20047;-86
2021/04/29 04:29:00;;;;;;;22.45;14.40;;;;;;;11.98;74.82;94477.25;2994990;39;20054;-72
2021/04/29 04:31:01;;;;;;;21.13;14.00;;;;;;;12.07;74.79;94483.28;2982351;39;20051;-71
2021/04/29 04:33:03;;;;;;;21.80;14.77;;;;;;;12.13;74.07;94490.47;2983766;39;20055;-71
2021/04/29 04:35:05;;;;;;;21.23;15.07;;;;;;;11.93;74.97;94486.63;2983802;39;20401;-72
2021/04/29 04:37:06;;;;;;;21.13;15.30;;;;;;;11.90;75.60;94485.16;2983662;39;20064;-73
2021/04/29 04:39:09;;;;;;;23.77;14.88;;;;;;;12.04;75.08;94488.84;2994572;39;20051;-87
2021/04/29 04:41:11;;;;;;;22.23;14.90;;;;;;;12.14;74.77;94492.09;2980570;39;20033;-85
2021/04/29 04:43:12;;;;;;;21.95;14.65;;;;;;;12.26;74.21;94488.06;2990281;39;20082;-73
2021/04/29 04:45:14;;;;;;;21.77;14.02;;;;;;;12.33;74.47;94495.25;2992040;39;20290;-73
2021/04/29 04:47:15;;;;;;;25.42;15.75;;;;;;;12.45;73.88;94501.72;2994256;39;20412;-73
2021/04/29 04:49:17;;;;;;;28.23;17.48;;;;;;;12.55;73.62;94502.31;2998938;39;20356;-72
2021/04/29 04:51:18;;;;;;;29.27;18.02;;;;;;;12.70;72.92;94497.91;2989484;39;20039;-74
2021/04/29 04:53:20;;;;;;;24.45;16.17;;;;;;;12.68;72.82;94502.53;2985101;39;20051;-75
2021/04/29 04:55:22;;;;;;;25.30;15.95;;;;;;;12.68;72.81;94504.34;2984153;39;20071;-72
2021/04/29 04:57:23;;;;;;;22.02;15.55;;;;;;;12.66;72.67;94503.72;2980835;39;20437;-73
2021/04/29 04:59:24;;;;;;;23.73;15.88;;;;;;;12.64;72.91;94503.88;2987668;39;20446;-74
2021/04/29 05:01:26;;;;;;;25.52;15.93;;;;;;;12.44;73.72;94497.47;2984208;39;20110;-74
2021/04/29 05:03:28;;;;;;;25.38;16.48;;;;;;;12.59;73.32;94510.66;2982310;39;20083;-73
2021/04/29 05:05:30;;;;;;;25.90;18.02;;;;;;;12.74;72.69;94495.75;2991117;39;20426;-72
2021/04/29 05:07:32;;;;;;;27.50;16.48;;;;;;;12.74;72.16;94511.53;2982608;39;20055;-72
2021/04/29 05:09:34;;;;;;;22.65;16.40;;;;;;;12.78;71.91;94502.31;2993076;39;20091;-73
2021/04/29 05:11:35;;;;;;;22.48;16.40;;;;;;;12.70;72.26;94503.16;2983278;39;20079;-74
2021/04/29 05:13:36;;;;;;;24.50;16.50;;;;;;;12.59;73.03;94506.22;2993059;39;20062;-73
2021/04/29 05:15:37;;;;;;;25.25;16.83;;;;;;;12.64;72.89;94510.94;2993510;39;20051;-75
2021/04/29 05:17:39;;;;;;;22.15;15.82;;;;;;;12.65;73.11;94507.34;2974697;39;20133;-75
2021/04/29 05:19:40;;;;;;;28.60;16.70;;;;;;;12.71;72.82;94511.88;2985525;39;20083;-73
2021/04/29 05:21:42;;;;;;;23.98;16.15;;;;;;;12.70;72.23;94505.81;2989091;39;20055;-74
2021/04/29 05:23:46;;;;;;;23.15;15.75;;;;;;;12.70;72.66;94499.72;2989913;39;20068;-72
2021/04/29 05:25:47;;;;;;;23.05;15.60;;;;;;;12.74;72.43;94505.47;2993074;39;20063;-72
2021/04/29 05:27:52;;;;;;;25.92;16.13;;;;;;;12.85;72.51;94510.28;2992753;39;20059;-75
2021/04/29 05:29:54;;;;;;;25.17;16.30;;;;;;;12.86;71.90;94518.00;2987606;39;20087;-72
2021/04/29 05:31:55;;;;;;;25.08;16.42;;;;;;;12.82;72.67;94513.25;2983669;39;20079;-73
2021/04/29 05:33:56;;;;;;;24.65;17.27;;;;;;;12.78;72.60;94515.44;2981625;39;20080;-74
2021/04/29 05:35:58;;;;;;;24.13;15.30;;;;;;;12.73;72.24;94514.31;2992611;39;20086;-73
2021/04/29 05:37:59;;;;;;;22.35;16.20;;;;;;;12.63;72.62;94515.41;2987303;39;20075;-72
2021/04/29 05:40:00;;;;;;;22.02;15.57;;;;;;;12.64;73.48;94516.19;2982611;39;20313;-74
2021/04/29 05:42:01;;;;;;;25.55;17.67;;;;;;;12.80;73.26;94520.50;2983172;39;20443;-72
2021/04/29 05:44:03;;;;;;;46.55;30.17;;;;;;;12.97;73.03;94518.56;2980747;39;20532;-74
2021/04/29 05:46:04;;;;;;;38.53;26.48;;;;;;;13.05;71.73;94524.56;2989461;39;20103;-73
2021/04/29 05:48:06;;;;;;;35.47;25.48;;;;;;;13.18;71.40;94523.94;2997590;39;20318;-73
2021/04/29 05:50:08;;;;;;;25.50;18.33;;;;;;;13.28;71.09;94521.06;2984575;39;20256;-74
2021/04/29 05:52:10;;;;;;;25.08;17.27;;;;;;;13.30;70.31;94522.56;2991339;39;20053;-73
2021/04/29 05:54:12;;;;;;;26.58;18.40;;;;;;;13.33;70.81;94526.63;2976632;39;20422;-75
2021/04/29 05:56:16;;;;;;;25.23;17.38;;;;;;;13.29;71.51;94534.09;2987846;39;20062;-76
2021/04/29 05:58:17;;;;;;;23.02;17.95;;;;;;;13.37;70.75;94525.28;2992803;39;20070;-72
2021/04/29 06:00:18;;;;;;;29.30;19.27;;;;;;;13.54;70.79;94525.13;2992614;39;20353;-73
2021/04/29 06:02:20;;;;;;;26.73;17.63;;;;;;;13.63;69.63;94531.91;2990991;39;20579;-72
2021/04/29 06:04:21;;;;;;;23.17;16.98;;;;;;;13.67;69.11;94534.00;2984746;39;20051;-74
2021/04/29 06:06:22;;;;;;;24.50;17.42;;;;;;;13.79;68.83;94537.00;2992747;39;20051;-74
2021/04/29 06:08:24;;;;;;;23.35;17.33;;;;;;;13.86;69.10;94532.63;2983558;39;20217;-73
2021/04/29 06:10:27;;;;;;;29.05;18.38;;;;;;;13.87;68.47;94531.66;2974736;39;20306;-73
2021/04/29 06:12:28;;;;;;;31.27;21.80;;;;;;;13.36;70.18;94533.34;2992163;39;20080;-74
2021/04/29 06:14:29;;;;;;;31.75;21.35;;;;;;;13.11;71.60;94536.19;2981733;39;20419;-72
2021/04/29 06:16:31;;;;;;;31.48;20.77;;;;;;;13.10;71.61;94532.75;2992045;39;20124;-74
2021/04/29 06:18:32;;;;;;;31.67;21.67;;;;;;;13.04;71.88;94540.53;2991324;39;20083;-75
2021/04/29 06:20:34;;;;;;;32.67;22.27;;;;;;;12.80;72.39;94541.53;2992548;39;20067;-73
2021/04/29 06:22:35;;;;;;;37.10;22.45;;;;;;;12.54;74.00;94544.53;2989477;39;20327;-75
2021/04/29 06:24:37;;;;;;;33.45;23.38;;;;;;;12.80;73.08;94549.41;2992946;39;20063;-74
2021/04/29 06:26:38;;;;;;;34.33;23.27;;;;;;;13.09;72.35;94548.69;2982261;39;20046;-73
2021/04/29 06:28:39;;;;;;;35.10;23.02;;;;;;;13.33;71.38;94547.69;2981997;39;20505;-73
2021/04/29 06:30:41;;;;;;;34.55;23.50;;;;;;;13.52;70.68;94546.34;2983500;39;20102;-73
2021/04/29 06:32:43;;;;;;;35.22;22.23;;;;;;;13.64;70.48;94549.34;2972805;39;20139;-75
2021/04/29 06:34:45;;;;;;;36.97;23.48;;;;;;;13.82;69.41;94546.34;2993298;39;20087;-74
2021/04/29 06:36:47;;;;;;;31.55;22.58;;;;;;;13.90;69.13;94552.34;2982582;39;20056;-75
2021/04/29 06:38:48;;;;;;;33.97;23.08;;;;;;;13.98;69.05;94551.44;2992123;39;20051;-73
2021/04/29 06:40:49;;;;;;;34.35;23.25;;;;;;;14.02;68.59;94552.66;2992558;39;20081;-72
2021/04/29 06:42:51;;;;;;;32.28;23.45;;;;;;;14.18;68.64;94551.66;2981745;39;20069;-74
2021/04/29 06:44:53;;;;;;;34.38;22.88;;;;;;;14.20;68.24;94543.59;2992840;39;20062;-73
2021/04/29 06:46:54;;;;;;;34.50;24.27;;;;;;;14.34;68.45;94538.25;2992101;39;20066;-73
2021/04/29 06:48:55;;;;;;;34.80;23.80;;;;;;;14.53;67.07;94549.19;2991727;39;20143;-74
2021/04/29 06:50:57;;;;;;;36.03;24.73;;;;;;;14.40;67.55;94534.06;2992700;39;20039;-75
2021/04/29 06:52:58;;;;;;;33.83;24.05;;;;;;;14.43;67.50;94538.97;2989746;39;20056;-74
2021/04/29 06:54:59;;;;;;;40.05;25.63;;;;;;;14.45;66.72;94544.03;2988574;39;20054;-74
2021/04/29 06:57:02;;;;;;;32.80;23.75;;;;;;;14.28;67.36;94536.38;2979046;39;20075;-88
2021/04/29 06:59:05;;;;;;;39.72;25.10;;;;;;;14.45;66.96;94536.13;2997252;39;20123;-87
2021/04/29 07:01:07;;;;;;;38.95;24.88;;;;;;;14.57;66.79;94547.06;3000622;39;20043;-86
2021/04/29 07:03:12;;;;;;;34.65;23.95;;;;;;;14.70;67.01;94529.53;2992050;39;20039;-89
2021/04/29 07:05:13;;;;;;;31.13;23.10;;;;;;;14.91;66.52;94533.97;2979027;39;20044;-87
2021/04/29 07:07:15;;;;;;;31.67;23.58;;;;;;;14.97;65.82;94534.22;2987163;39;20035;-88
2021/04/29 07:09:16;;;;;;;32.15;23.30;;;;;;;15.07;65.76;94532.88;3004057;39;20043;-86
2021/04/29 07:11:17;;;;;;;38.78;24.73;;;;;;;15.23;65.08;94534.44;3004700;39;20031;-89
2021/04/29 07:13:18;;;;;;;32.88;23.48;;;;;;;15.36;65.17;94539.00;2994968;39;20047;-88
2021/04/29 07:15:20;;;;;;;30.55;21.10;;;;;;;15.46;64.17;94539.47;3001576;39;20039;-87
2021/04/29 07:17:21;;;;;;;31.63;21.98;;;;;;;15.60;63.64;94536.94;2994916;39;20466;-74
2021/04/29 07:19:22;;;;;;;32.28;21.58;;;;;;;15.70;63.05;94538.22;2993815;39;20055;-74
2021/04/29 07:21:24;;;;;;;28.60;22.63;;;;;;;15.77;62.88;94535.66;2992333;39;20500;-75
2021/04/29 07:23:25;;;;;;;29.60;21.13;;;;;;;15.41;63.12;94533.97;2985439;39;20052;-72
2021/04/29 07:25:27;;;;;;;34.60;22.08;;;;;;;15.35;63.73;94535.53;2988833;39;20416;-72
2021/04/29 07:27:28;;;;;;;30.00;22.08;;;;;;;15.23;64.84;94538.91;2989728;39;20143;-75
2021/04/29 07:29:29;;;;;;;33.92;22.85;;;;;;;15.41;64.22;94530.50;2995218;39;20314;-74
2021/04/29 07:31:31;;;;;;;30.88;22.42;;;;;;;15.64;63.91;94530.22;2993128;39;20062;-74
2021/04/29 07:33:50;;;;;;;32.78;22.83;;;;;;;15.89;63.29;94536.69;2984876;39;20109;-73
2021/04/29 07:35:51;;;;;;;33.55;21.90;;;;;;;15.97;62.83;94531.25;2983942;39;20151;-74
2021/04/29 07:37:52;;;;;;;32.25;21.58;;;;;;;16.12;62.19;94531.13;2993438;39;20055;-74
2021/04/29 07:39:54;;;;;;;32.25;21.45;;;;;;;16.20;61.41;94527.50;2986935;39;20043;-76
2021/04/29 07:41:55;;;;;;;27.20;20.10;;;;;;;16.28;61.57;94531.78;2991928;39;20055;-72
2021/04/29 07:44:01;;;;;;;29.15;20.88;;;;;;;16.42;61.69;94530.03;2978566;39;20083;-74
2021/04/29 07:46:02;;;;;;;31.15;20.95;;;;;;;16.55;60.92;94520.28;2980619;39;20435;-72
2021/04/29 07:48:05;;;;;;;29.60;20.88;;;;;;;16.59;60.41;94523.34;2990036;39;20051;-74
2021/04/29 07:50:07;;;;;;;29.17;20.83;;;;;;;16.70;60.33;94522.75;2983742;39;20091;-73
2021/04/29 07:52:08;;;;;;;27.45;19.20;;;;;;;16.67;60.50;94519.69;2991842;39;20312;-74
2021/04/29 07:54:13;;;;;;;30.45;19.73;;;;;;;16.69;60.01;94523.78;2988083;39;20066;-74
2021/04/29 07:56:15;;;;;;;27.25;19.60;;;;;;;16.74;59.53;94528.47;2983460;39;20449;-74
2021/04/29 07:58:16;;;;;;;31.10;19.67;;;;;;;16.76;59.46;94524.59;2986706;39;20091;-86
2021/04/29 08:00:28;;;;;;;28.23;19.45;;;;;;;16.67;59.44;94524.97;2989660;39;20112;-88
2021/04/29 08:02:29;;;;;;;26.52;19.23;;;;;;;16.45;59.86;94521.66;2991193;39;20043;-83
2021/04/29 08:04:32;;;;;;;33.42;20.58;;;;;;;16.41;60.54;94508.03;3001019;39;20047;-89
2021/04/29 08:06:33;;;;;;;31.63;18.30;;;;;;;16.52;60.11;94519.84;2997521;39;20069;-88
2021/04/29 08:08:34;;;;;;;29.05;18.63;;;;;;;16.71;59.60;94513.81;2997031;39;20043;-87
2021/04/29 08:10:39;;;;;;;28.52;19.15;;;;;;;16.88;58.89;94516.09;3004481;39;20035;-88
2021/04/29 08:12:40;;;;;;;29.35;20.65;;;;;;;16.69;59.09;94515.84;3006213;39;20031;-86
2021/04/29 08:14:45;;;;;;;32.92;21.42;;;;;;;16.72;59.22;94515.44;2985167;39;20373;-87
2021/04/29 08:16:48;;;;;;;25.33;18.83;;;;;;;16.66;59.27;94518.06;2997979;39;20043;-87
2021/04/29 08:18:49;;;;;;;31.70;19.42;;;;;;;16.68;59.18;94516.03;2988047;39;20063;-86
2021/04/29 08:20:56;;;;;;;29.50;18.83;;;;;;;16.83;58.89;94521.19;2997361;39;20120;-87
2021/04/29 08:22:57;;;;;;;27.88;19.25;;;;;;;17.06;58.84;94518.97;2997407;39;20034;-85
2021/04/29 08:25:00;;;;;;;31.67;19.17;;;;;;;17.26;58.27;94512.84;2988383;39;20048;-87
2021/04/29 08:27:01;;;;;;;27.10;19.40;;;;;;;17.26;57.63;94510.19;2983828;39;20055;-75
2021/04/29 08:29:04;;;;;;;26.67;18.40;;;;;;;17.35;58.16;94516.91;2991821;39;20092;-73
2021/04/29 08:31:06;;;;;;;28.23;18.02;;;;;;;17.51;57.51;94511.19;2975103;39;20059;-75
2021/04/29 08:33:08;;;;;;;22.67;17.27;;;;;;;17.56;57.20;94518.50;2983378;39;20065;-73
2021/04/29 08:35:09;;;;;;;29.05;18.73;;;;;;;17.74;56.45;94516.00;2994355;39;20055;-86
2021/04/29 08:37:11;;;;;;;25.75;17.48;;;;;;;17.68;56.16;94508.91;2989498;39;20034;-86
2021/04/29 08:39:12;;;;;;;24.10;18.15;;;;;;;17.80;56.60;94509.06;2993490;39;20139;-86
2021/04/29 08:41:13;;;;;;;28.27;18.80;;;;;;;17.73;56.59;94508.28;3006964;39;20050;-86
2021/04/29 08:43:16;;;;;;;27.17;18.67;;;;;;;17.70;57.43;94506.88;2999448;39;20331;-86
2021/04/29 08:45:18;;;;;;;29.75;19.88;;;;;;;17.35;57.17;94504.47;2980260;39;20058;-88
2021/04/29 08:47:20;;;;;;;28.33;19.08;;;;;;;17.18;57.85;94498.78;2989293;39;20079;-86
2021/04/29 08:49:35;;;;;;;28.80;19.23;;;;;;;17.39;57.63;94497.75;2991042;39;20036;-88
2021/04/29 08:51:40;;;;;;;29.38;18.48;;;;;;;17.50;56.71;94496.31;2996128;39;20047;-73
2021/04/29 08:53:43;;;;;;;25.08;17.30;;;;;;;17.61;56.92;94502.78;2987661;39;20159;-75
2021/04/29 08:55:44;;;;;;;27.55;17.90;;;;;;;17.77;56.51;94504.19;2992602;39;20079;-73
2021/04/29 08:57:46;;;;;;;27.15;17.25;;;;;;;17.81;56.44;94500.13;2988085;39;20170;-73
2021/04/29 08:59:47;;;;;;;27.25;18.20;;;;;;;17.74;56.52;94494.00;2993415;39;20055;-74
2021/04/29 09:01:49;;;;;;;27.70;17.58;;;;;;;17.97;56.02;94490.91;2993017;39;20062;-71
2021/04/29 09:03:51;;;;;;;26.48;18.35;;;;;;;18.25;55.66;94498.53;2983081;39;20217;-72
2021/04/29 09:05:57;;;;;;;23.95;17.45;;;;;;;18.35;54.90;94492.78;2983711;39;20063;-74
2021/04/29 09:08:02;;;;;;;27.15;17.67;;;;;;;18.49;54.96;94483.72;2984003;39;20436;-72
2021/04/29 09:10:04;;;;;;;30.95;18.17;;;;;;;18.57;54.36;94488.78;2992647;39;20174;-70
2021/04/29 09:12:06;;;;;;;27.63;16.98;;;;;;;18.37;54.50;94486.25;2997318;39;20070;-83
2021/04/29 09:14:09;;;;;;;;;;;;;;;18.44;54.57;94488.06;3003135;39;20027;-86
2021/04/29 09:16:12;;;;;;;30.65;17.23;;;;;;;18.09;54.74;94480.44;2994360;39;19928;-86
2021/04/29 09:18:43;;;;;;;29.45;16.17;;;;;;;17.94;55.62;94478.91;2992841;39;20035;-86
2021/04/29 09:21:03;;;;;;;25.52;15.88;;;;;;;18.37;54.59;94473.00;2992618;39;20111;-87
2021/04/29 09:23:07;;;;;;;21.33;15.73;;;;;;;18.66;53.99;94462.00;3000181;39;20063;-86
2021/04/29 09:25:16;;;;;;;;;;;;;;;18.53;53.92;94468.19;3001559;39;20412;-86